Емельяново

Карта отелей и гостиниц, располагающихся рядом с аэропортом Емельяново :

Емельяново
Красноярск
Красноярский край 56° 10' 22.5588" N, 92° 29' 35.7" E
Код аэродрома ИКАО
UNKL
Код аэродрома RU
УНКЛ
Координаты
N56.17293° E092.49325°
Превышение над уровнем моря
287
Основная полоса
11/29
Курс магнитный
109,1/289,1
Длина основной ВПП
3705
Ширина основной ВПП
60
Покрытие основной ВПП
Твёрдое (асфальтобетон)
Освещение ВПП
Постоянное
Тип: 
Аэродром
Класс аэродрома: 
Международный
Принадлежность: 
ГА
Статус: 
Действующий
Сайт: 
www.yemelyanovo.ru
E-mail аэродрома: 
office@kia.aero
Страна: 
Россия
Регион: 
Красноярский край
Город: 
Красноярск
Дополнительная информация: 
Оператор: ООО "Аэропорт Емельяново". Построен в 1970 г, введен в эксплуатацию 25 октября 1980 г. В 2016 г. аэропорт вошел в перечень аэропортов федерального значения. Имеет выгодное географическое положение и является стратегическим транзитным узлом в воздушном сообщении между Европой и Азией. Военный индекс: XNKL / ЬНКЛ.
Схемы аэропортов: 
Погода: 

Авиационная погода в Емельяново

Регион: 
Погода METAR: 
UNKL 241700Z 26007MPS 9999 SCT041CB 06/03 Q1017 R29/290055 NOSIG RMK QFE737
Время наблюдения
2021-10-24T17:00:00Z
Температура C
6.0
Точка росы
3.0
Направление ветра
260
Скорость ветра (узлы)
14
Метео видимость
6.21
Явления погоды
Условия полета
VFR
Аэропорт подробнее: 

Найти трансфер

С помощью этой формы Вы можете найти трансфер из аэропорта Емельяново в город, аэропорт или вокзал:

Карта места

Javascript is required to view this map.

Погода в аэропортах:

Авиационная погода в Синопе

Регион: 
Погода METAR: 
LTCM 241650Z 32008KT 210V360 7000 -SHRA SCT015 BKN025 BKN070 13/11 Q1026
Время наблюдения
2021-10-24T16:50:00Z
Температура C
13.0
Точка росы
11.0
Направление ветра
320
Скорость ветра (узлы)
8
Метео видимость
4.35
Явления погоды
-SHRA
Условия полета
MVFR

Авиационная погода в Алматы

Регион: 
Погода METAR: 
UAAA 241800Z 15001MPS 1400 R23L/P2000D BR FU NSC 02/M00 Q1020 R23L/CLRD65 NOSIG
Время наблюдения
2021-10-24T18:00:00Z
Температура C
2.0
Точка росы
0.0
Направление ветра
150
Скорость ветра (узлы)
2
Метео видимость
0.87
Явления погоды
FU BR
Условия полета
LIFR
Аэропорт подробнее: 

Авиационная погода в Чимкенте

Регион: 
Погода METAR: 
UAII 241800Z 13003MPS 3100 FU NSC 08/03 Q1016 R10/0///70 NOSIG RMK QFE727/0969
Время наблюдения
2021-10-24T18:00:00Z
Температура C
8.0
Точка росы
3.0
Направление ветра
130
Скорость ветра (узлы)
6
Метео видимость
1.93
Явления погоды
FU
Условия полета
IFR
Аэропорт подробнее: 

Авиационная погода в Якутске

Регион: 
Погода METAR: 
UEEE 241700Z 22002MPS 9999 -SHSN SCT040CB 00/M01 Q1003 R23L/150156 NOSIG RMK QFE743
Время наблюдения
2021-10-24T17:00:00Z
Температура C
0.0
Точка росы
-1.0
Направление ветра
220
Скорость ветра (узлы)
4
Метео видимость
6.21
Явления погоды
-SHSN
Условия полета
VFR
Аэропорт подробнее: